NKS1A TJSJ-KMCO
Flight info
| Callsign | NKS1A |
|---|---|
| Flight time | 2h 46m |
| Altitude | 34000 |
| Route | ACONY3 SAPPO Y280 OCTAL MUNGI1 |
| Aircraft | A320/M-SDE3FGHIRWY/LB1 |
Departure
| Time | 2026-05-04 17:04 |
|---|---|
| Airport | Luis Munoz Marin International Airport (TJSJ) |
Arrival
| Time | 2026-05-04 19:51 |
|---|---|
| Airport | Orlando International Airport (KMCO) |
| Time | Latitude | Longitude | Altitude | Speed | Heading |
|---|---|---|---|---|---|
| 2026-05-04 16:37 | 18.43630 | -66.00231 | 17 ft | 0 kts | 343° |
| 2026-05-04 16:52 | 18.43627 | -66.00230 | 17 ft | 2 kts | 343° |
| 2026-05-04 16:53 | 18.43589 | -66.00219 | 21 ft | 3 kts | 344° |
| 2026-05-04 16:53 | 18.43536 | -66.00221 | 19 ft | 3 kts | 59° |
| 2026-05-04 16:54 | 18.43529 | -66.00240 | 17 ft | 3 kts | 78° |
| 2026-05-04 16:55 | 18.43524 | -66.00263 | 17 ft | 0 kts | 67° |
| 2026-05-04 16:58 | 18.43528 | -66.00253 | 17 ft | 6 kts | 67° |
| 2026-05-04 16:59 | 18.43567 | -66.00097 | 17 ft | 13 kts | 82° |
| 2026-05-04 17:00 | 18.43925 | -66.00084 | 17 ft | 20 kts | 336° |
| 2026-05-04 17:00 | 18.44240 | -66.00293 | 17 ft | 12 kts | 242° |
| 2026-05-04 17:01 | 18.44139 | -66.00505 | 18 ft | 19 kts | 231° |
| 2026-05-04 17:01 | 18.44011 | -66.00779 | 17 ft | 23 kts | 247° |
| 2026-05-04 17:02 | 18.43880 | -66.01102 | 17 ft | 24 kts | 249° |
| 2026-05-04 17:02 | 18.43790 | -66.01424 | 19 ft | 19 kts | 248° |
| 2026-05-04 17:03 | 18.43777 | -66.01542 | 18 ft | 16 kts | 312° |
| 2026-05-04 17:03 | 18.43862 | -66.01520 | 17 ft | 16 kts | 62° |
| 2026-05-04 17:03 | 18.44200 | -66.00687 | 17 ft | 119 kts | 67° |
| 2026-05-04 17:04 | 18.45075 | -65.98608 | 500 ft | 169 kts | 64° |
| 2026-05-04 17:04 | 18.46906 | -65.97078 | 1825 ft | 199 kts | 5° |
| 2026-05-04 17:05 | 18.49402 | -65.98589 | 2709 ft | 222 kts | 314° |
| 2026-05-04 17:05 | 18.51532 | -66.01022 | 3710 ft | 229 kts | 311° |
| 2026-05-04 17:06 | 18.53632 | -66.03648 | 4710 ft | 244 kts | 310° |
| 2026-05-04 17:06 | 18.54817 | -66.05010 | 5095 ft | 262 kts | 315° |
| 2026-05-04 17:07 | 18.57559 | -66.07925 | 6049 ft | 292 kts | 315° |
| 2026-05-04 17:07 | 18.58502 | -66.08942 | 6515 ft | 295 kts | 315° |
| 2026-05-04 17:07 | 18.60418 | -66.11046 | 7464 ft | 299 kts | 314° |
| 2026-05-04 17:07 | 18.61853 | -66.12650 | 8178 ft | 302 kts | 314° |
| 2026-05-04 17:08 | 18.63295 | -66.14279 | 8890 ft | 305 kts | 313° |
| 2026-05-04 17:08 | 18.66192 | -66.17570 | 10193 ft | 314 kts | 312° |
| 2026-05-04 17:08 | 18.67728 | -66.19315 | 10321 ft | 336 kts | 312° |
| 2026-05-04 17:09 | 18.69357 | -66.21165 | 10599 ft | 349 kts | 313° |
| 2026-05-04 17:09 | 18.71022 | -66.23056 | 11123 ft | 354 kts | 312° |
| 2026-05-04 17:09 | 18.72703 | -66.24966 | 11701 ft | 357 kts | 312° |
| 2026-05-04 17:10 | 18.76102 | -66.28826 | 12851 ft | 361 kts | 312° |
| 2026-05-04 17:10 | 18.80690 | -66.34041 | 14308 ft | 367 kts | 311° |
| 2026-05-04 17:11 | 18.82426 | -66.36017 | 14839 ft | 368 kts | 311° |
| 2026-05-04 17:11 | 18.84170 | -66.38002 | 15360 ft | 369 kts | 310° |
| 2026-05-04 17:11 | 18.87685 | -66.41998 | 16361 ft | 373 kts | 310° |
| 2026-05-04 17:12 | 18.89456 | -66.44010 | 16850 ft | 375 kts | 310° |
| 2026-05-04 17:12 | 18.93031 | -66.48066 | 17819 ft | 380 kts | 311° |
| 2026-05-04 17:13 | 18.98771 | -66.53966 | 19088 ft | 388 kts | 314° |
| 2026-05-04 17:14 | 19.04727 | -66.59886 | 20255 ft | 396 kts | 314° |
| 2026-05-04 17:14 | 19.06726 | -66.61905 | 20641 ft | 398 kts | 314° |
| 2026-05-04 17:14 | 19.10383 | -66.66329 | 21365 ft | 403 kts | 307° |
| 2026-05-04 17:15 | 19.12161 | -66.68626 | 21727 ft | 405 kts | 308° |
| 2026-05-04 17:15 | 19.15775 | -66.73266 | 22414 ft | 412 kts | 308° |
| 2026-05-04 17:16 | 19.19442 | -66.77975 | 23083 ft | 418 kts | 309° |
| 2026-05-04 17:16 | 19.25033 | -66.85174 | 24010 ft | 426 kts | 309° |
| 2026-05-04 17:17 | 19.26916 | -66.87596 | 24320 ft | 427 kts | 309° |
| 2026-05-04 17:17 | 19.32627 | -66.94942 | 25287 ft | 430 kts | 309° |
| 2026-05-04 17:18 | 19.34530 | -66.97394 | 25610 ft | 432 kts | 309° |
| 2026-05-04 17:18 | 19.38345 | -67.02322 | 26244 ft | 434 kts | 309° |
| 2026-05-04 17:19 | 19.42180 | -67.07279 | 26865 ft | 436 kts | 309° |
| 2026-05-04 17:19 | 19.46033 | -67.12260 | 27470 ft | 438 kts | 309° |
| 2026-05-04 17:20 | 19.49908 | -67.17266 | 28065 ft | 441 kts | 309° |
| 2026-05-04 17:20 | 19.53803 | -67.22305 | 28695 ft | 443 kts | 309° |
| 2026-05-04 17:20 | 19.55757 | -67.24838 | 29015 ft | 444 kts | 309° |
| 2026-05-04 17:21 | 19.59672 | -67.29932 | 29617 ft | 447 kts | 309° |
| 2026-05-04 17:21 | 19.63604 | -67.35029 | 30412 ft | 445 kts | 309° |
| 2026-05-04 17:22 | 19.65559 | -67.37563 | 30763 ft | 444 kts | 309° |
| 2026-05-04 17:22 | 19.67512 | -67.40096 | 31124 ft | 443 kts | 309° |
| 2026-05-04 17:23 | 19.73339 | -67.47665 | 32202 ft | 440 kts | 309° |
| 2026-05-04 17:23 | 19.75272 | -67.50184 | 32558 ft | 440 kts | 309° |
| 2026-05-04 17:23 | 19.79130 | -67.55210 | 33281 ft | 438 kts | 308° |
| 2026-05-04 17:24 | 19.81055 | -67.57719 | 33640 ft | 438 kts | 308° |
| 2026-05-04 17:24 | 19.86836 | -67.65258 | 34070 ft | 441 kts | 308° |
| 2026-05-04 17:25 | 19.88772 | -67.67785 | 34068 ft | 441 kts | 308° |
| 2026-05-04 17:26 | 19.96517 | -67.77893 | 34063 ft | 441 kts | 308° |
| 2026-05-04 17:27 | 20.06184 | -67.90551 | 34081 ft | 441 kts | 308° |
| 2026-05-04 17:28 | 20.13919 | -68.00688 | 34083 ft | 441 kts | 308° |
| 2026-05-04 17:29 | 20.25507 | -68.15902 | 34071 ft | 441 kts | 308° |
| 2026-05-04 17:31 | 20.35133 | -68.28597 | 34067 ft | 441 kts | 306° |
| 2026-05-04 17:32 | 20.44616 | -68.41419 | 34086 ft | 438 kts | 300° |
| 2026-05-04 17:33 | 20.51081 | -68.52419 | 34077 ft | 437 kts | 300° |
| 2026-05-04 17:34 | 20.57545 | -68.63395 | 34079 ft | 437 kts | 300° |
| 2026-05-04 17:35 | 20.65599 | -68.77137 | 34078 ft | 437 kts | 299° |
| 2026-05-04 17:36 | 20.68814 | -68.82634 | 34078 ft | 436 kts | 299° |
| 2026-05-04 17:36 | 20.72024 | -68.88128 | 34076 ft | 436 kts | 299° |
| 2026-05-04 17:37 | 20.75235 | -68.93617 | 34076 ft | 435 kts | 299° |
| 2026-05-04 17:37 | 20.78437 | -68.99097 | 34072 ft | 435 kts | 299° |
| 2026-05-04 17:38 | 20.81630 | -69.04577 | 34072 ft | 434 kts | 299° |
| 2026-05-04 17:38 | 20.84820 | -69.10059 | 34068 ft | 434 kts | 299° |
| 2026-05-04 17:39 | 20.89604 | -69.18285 | 34074 ft | 434 kts | 299° |
| 2026-05-04 17:39 | 20.92795 | -69.23769 | 34073 ft | 434 kts | 299° |
| 2026-05-04 17:40 | 20.95978 | -69.29254 | 34074 ft | 434 kts | 299° |
| 2026-05-04 17:40 | 20.99161 | -69.34729 | 34073 ft | 433 kts | 299° |
| 2026-05-04 17:41 | 21.02342 | -69.40201 | 34071 ft | 433 kts | 299° |
| 2026-05-04 17:41 | 21.05528 | -69.45713 | 34069 ft | 432 kts | 298° |
| 2026-05-04 17:42 | 21.08668 | -69.51143 | 34069 ft | 432 kts | 299° |
| 2026-05-04 17:42 | 21.11848 | -69.56644 | 34069 ft | 432 kts | 298° |
| 2026-05-04 17:43 | 21.15008 | -69.62113 | 34070 ft | 432 kts | 298° |
| 2026-05-04 17:43 | 21.18156 | -69.67585 | 34070 ft | 431 kts | 298° |
| 2026-05-04 17:44 | 21.21305 | -69.73054 | 34070 ft | 431 kts | 298° |
| 2026-05-04 17:44 | 21.24451 | -69.78519 | 34066 ft | 431 kts | 298° |
| 2026-05-04 17:45 | 21.27589 | -69.83986 | 34066 ft | 430 kts | 298° |
| 2026-05-04 17:45 | 21.30723 | -69.89448 | 34066 ft | 430 kts | 298° |
| 2026-05-04 17:46 | 21.33859 | -69.94903 | 34066 ft | 430 kts | 298° |
| 2026-05-04 17:46 | 21.36459 | -69.99438 | 34067 ft | 429 kts | 298° |
| 2026-05-04 17:47 | 21.39582 | -70.04901 | 34067 ft | 429 kts | 298° |
| 2026-05-04 17:47 | 21.42706 | -70.10356 | 34068 ft | 429 kts | 298° |
| 2026-05-04 17:48 | 21.45820 | -70.15808 | 34065 ft | 428 kts | 298° |
| 2026-05-04 17:48 | 21.48928 | -70.21259 | 34066 ft | 428 kts | 298° |
| 2026-05-04 17:49 | 21.52040 | -70.26709 | 34064 ft | 428 kts | 298° |
| 2026-05-04 17:49 | 21.55149 | -70.32158 | 34065 ft | 428 kts | 298° |
| 2026-05-04 17:50 | 21.58255 | -70.37612 | 34066 ft | 428 kts | 298° |
| 2026-05-04 17:50 | 21.61356 | -70.43065 | 34063 ft | 428 kts | 298° |
| 2026-05-04 17:51 | 21.64455 | -70.48521 | 34062 ft | 427 kts | 298° |
| 2026-05-04 17:51 | 21.67550 | -70.53976 | 34061 ft | 427 kts | 298° |
| 2026-05-04 17:52 | 21.70644 | -70.59432 | 34064 ft | 427 kts | 298° |
| 2026-05-04 17:52 | 21.73759 | -70.64923 | 34064 ft | 427 kts | 298° |
| 2026-05-04 17:53 | 21.76849 | -70.70384 | 34066 ft | 427 kts | 297° |
| 2026-05-04 17:53 | 21.79911 | -70.75805 | 34061 ft | 427 kts | 297° |
| 2026-05-04 17:54 | 21.83011 | -70.81297 | 34062 ft | 426 kts | 297° |
| 2026-05-04 17:54 | 21.86088 | -70.86757 | 34062 ft | 426 kts | 297° |
| 2026-05-04 17:55 | 21.89162 | -70.92208 | 34060 ft | 426 kts | 297° |
| 2026-05-04 17:55 | 21.92234 | -70.97661 | 34064 ft | 426 kts | 297° |
| 2026-05-04 17:56 | 21.95300 | -71.03116 | 34061 ft | 426 kts | 297° |
| 2026-05-04 17:56 | 21.98362 | -71.08574 | 34062 ft | 425 kts | 297° |
| 2026-05-04 17:57 | 22.01427 | -71.14025 | 34057 ft | 425 kts | 297° |
| 2026-05-04 17:57 | 22.04486 | -71.19476 | 34057 ft | 425 kts | 297° |
| 2026-05-04 17:58 | 22.07541 | -71.24926 | 34055 ft | 425 kts | 297° |
| 2026-05-04 17:58 | 22.10594 | -71.30387 | 34046 ft | 425 kts | 297° |
| 2026-05-04 17:59 | 22.13642 | -71.35844 | 34055 ft | 425 kts | 297° |
| 2026-05-04 18:00 | 22.18217 | -71.44030 | 34057 ft | 424 kts | 297° |
| 2026-05-04 18:00 | 22.21256 | -71.49484 | 34062 ft | 424 kts | 297° |
| 2026-05-04 18:01 | 22.24293 | -71.54943 | 34059 ft | 424 kts | 297° |
| 2026-05-04 18:01 | 22.27327 | -71.60396 | 34062 ft | 424 kts | 297° |
| 2026-05-04 18:02 | 22.31870 | -71.68566 | 34045 ft | 423 kts | 297° |
| 2026-05-04 18:02 | 22.34891 | -71.74008 | 34052 ft | 422 kts | 297° |
| 2026-05-04 18:03 | 22.37911 | -71.79443 | 34050 ft | 422 kts | 297° |
| 2026-05-04 18:03 | 22.40923 | -71.84875 | 34053 ft | 421 kts | 296° |
| 2026-05-04 18:04 | 22.43923 | -71.90306 | 34058 ft | 420 kts | 296° |
| 2026-05-04 18:05 | 22.48418 | -71.98434 | 34057 ft | 419 kts | 296° |
| 2026-05-04 18:05 | 22.51405 | -72.03837 | 34054 ft | 419 kts | 296° |
| 2026-05-04 18:06 | 22.55865 | -72.11943 | 34055 ft | 417 kts | 296° |
| 2026-05-04 18:06 | 22.58829 | -72.17331 | 34059 ft | 416 kts | 296° |
| 2026-05-04 18:07 | 22.61792 | -72.22705 | 34061 ft | 415 kts | 296° |
| 2026-05-04 18:07 | 22.64735 | -72.28070 | 34062 ft | 414 kts | 296° |
| 2026-05-04 18:08 | 22.67673 | -72.33424 | 34059 ft | 413 kts | 296° |
| 2026-05-04 18:08 | 22.70603 | -72.38769 | 34057 ft | 412 kts | 296° |
| 2026-05-04 18:09 | 22.76438 | -72.49421 | 34055 ft | 410 kts | 296° |
| 2026-05-04 18:10 | 22.79341 | -72.54741 | 34053 ft | 410 kts | 296° |
| 2026-05-04 18:10 | 22.82241 | -72.60058 | 34057 ft | 409 kts | 296° |
| 2026-05-04 18:11 | 22.85137 | -72.65372 | 34052 ft | 409 kts | 296° |
| 2026-05-04 18:11 | 22.88030 | -72.70683 | 34050 ft | 409 kts | 296° |
| 2026-05-04 18:12 | 22.90919 | -72.75993 | 34050 ft | 409 kts | 295° |
| 2026-05-04 18:12 | 22.93808 | -72.81304 | 34044 ft | 409 kts | 296° |
| 2026-05-04 18:13 | 22.96696 | -72.86621 | 34041 ft | 409 kts | 295° |
| 2026-05-04 18:14 | 23.01040 | -72.94643 | 34037 ft | 409 kts | 295° |
| 2026-05-04 18:14 | 23.03928 | -72.99970 | 34037 ft | 410 kts | 295° |
| 2026-05-04 18:15 | 23.09708 | -73.10655 | 34036 ft | 411 kts | 295° |
| 2026-05-04 18:16 | 23.12592 | -73.16011 | 34043 ft | 411 kts | 295° |
| 2026-05-04 18:16 | 23.15480 | -73.21362 | 34048 ft | 410 kts | 295° |
| 2026-05-04 18:17 | 23.19811 | -73.29385 | 34051 ft | 410 kts | 295° |
| 2026-05-04 18:18 | 23.24111 | -73.37401 | 34051 ft | 409 kts | 295° |
| 2026-05-04 18:18 | 23.26973 | -73.42733 | 34050 ft | 408 kts | 295° |
| 2026-05-04 18:19 | 23.31266 | -73.50719 | 34047 ft | 407 kts | 295° |
| 2026-05-04 18:19 | 23.34115 | -73.56042 | 34049 ft | 407 kts | 295° |
| 2026-05-04 18:20 | 23.36954 | -73.61362 | 34050 ft | 406 kts | 295° |
| 2026-05-04 18:20 | 23.39797 | -73.66682 | 34048 ft | 406 kts | 295° |
| 2026-05-04 18:21 | 23.42640 | -73.71992 | 34050 ft | 406 kts | 295° |
| 2026-05-04 18:21 | 23.45473 | -73.77307 | 34049 ft | 405 kts | 294° |
| 2026-05-04 18:22 | 23.48304 | -73.82616 | 34051 ft | 405 kts | 295° |
| 2026-05-04 18:22 | 23.51123 | -73.87923 | 34047 ft | 404 kts | 294° |
| 2026-05-04 18:23 | 23.53939 | -73.93225 | 34044 ft | 404 kts | 294° |
| 2026-05-04 18:23 | 23.56751 | -73.98525 | 34040 ft | 404 kts | 294° |
| 2026-05-04 18:24 | 23.59087 | -74.02927 | 34041 ft | 404 kts | 294° |
| 2026-05-04 18:24 | 23.61895 | -74.08227 | 34042 ft | 403 kts | 294° |
| 2026-05-04 18:25 | 23.64698 | -74.13522 | 34044 ft | 403 kts | 294° |
| 2026-05-04 18:25 | 23.67503 | -74.18817 | 34046 ft | 403 kts | 294° |
| 2026-05-04 18:26 | 23.70304 | -74.24110 | 34044 ft | 403 kts | 294° |
| 2026-05-04 18:26 | 23.73096 | -74.29402 | 34047 ft | 402 kts | 294° |
| 2026-05-04 18:27 | 23.75881 | -74.34689 | 34045 ft | 402 kts | 294° |
| 2026-05-04 18:27 | 23.78659 | -74.39982 | 34055 ft | 401 kts | 294° |
| 2026-05-04 18:28 | 23.81433 | -74.45268 | 34059 ft | 401 kts | 294° |
| 2026-05-04 18:28 | 23.84216 | -74.50544 | 34063 ft | 401 kts | 294° |
| 2026-05-04 18:29 | 23.86985 | -74.55820 | 34064 ft | 400 kts | 294° |
| 2026-05-04 18:29 | 23.89747 | -74.61093 | 34066 ft | 399 kts | 294° |
| 2026-05-04 18:30 | 23.93883 | -74.68995 | 34064 ft | 399 kts | 294° |
| 2026-05-04 18:31 | 23.96636 | -74.74256 | 34056 ft | 399 kts | 294° |
| 2026-05-04 18:31 | 23.99385 | -74.79523 | 34047 ft | 399 kts | 294° |
| 2026-05-04 18:32 | 24.02130 | -74.84789 | 34043 ft | 399 kts | 294° |
| 2026-05-04 18:32 | 24.04877 | -74.90060 | 34038 ft | 399 kts | 294° |
| 2026-05-04 18:33 | 24.07623 | -74.95330 | 34029 ft | 399 kts | 294° |
| 2026-05-04 18:33 | 24.10371 | -75.00614 | 34031 ft | 399 kts | 294° |
| 2026-05-04 18:34 | 24.13113 | -75.05905 | 34030 ft | 400 kts | 294° |
| 2026-05-04 18:34 | 24.15857 | -75.11199 | 34029 ft | 400 kts | 294° |
| 2026-05-04 18:35 | 24.18606 | -75.16500 | 34023 ft | 400 kts | 294° |
| 2026-05-04 18:35 | 24.21360 | -75.21807 | 34025 ft | 401 kts | 294° |
| 2026-05-04 18:36 | 24.24109 | -75.27123 | 34019 ft | 401 kts | 294° |
| 2026-05-04 18:36 | 24.26855 | -75.32451 | 34016 ft | 402 kts | 295° |
| 2026-05-04 18:37 | 24.29610 | -75.37782 | 34017 ft | 402 kts | 295° |
| 2026-05-04 18:37 | 24.32370 | -75.43119 | 34018 ft | 403 kts | 295° |
| 2026-05-04 18:38 | 24.35123 | -75.48472 | 34017 ft | 403 kts | 294° |
| 2026-05-04 18:38 | 24.37869 | -75.53827 | 34021 ft | 403 kts | 294° |
| 2026-05-04 18:39 | 24.40617 | -75.59183 | 34024 ft | 403 kts | 295° |
| 2026-05-04 18:39 | 24.43367 | -75.64539 | 34023 ft | 403 kts | 295° |
| 2026-05-04 18:40 | 24.46122 | -75.69891 | 34029 ft | 403 kts | 295° |
| 2026-05-04 18:40 | 24.48864 | -75.75251 | 34027 ft | 403 kts | 294° |
| 2026-05-04 18:41 | 24.51606 | -75.80610 | 34028 ft | 402 kts | 295° |
| 2026-05-04 18:41 | 24.54341 | -75.85970 | 34031 ft | 402 kts | 294° |
| 2026-05-04 18:42 | 24.57077 | -75.91332 | 34028 ft | 402 kts | 294° |
| 2026-05-04 18:42 | 24.59811 | -75.96696 | 34034 ft | 402 kts | 294° |
| 2026-05-04 18:43 | 24.62544 | -76.02061 | 34022 ft | 402 kts | 294° |
| 2026-05-04 18:43 | 24.65286 | -76.07468 | 34027 ft | 402 kts | 294° |
| 2026-05-04 18:44 | 24.68010 | -76.12841 | 34021 ft | 402 kts | 294° |
| 2026-05-04 18:44 | 24.70739 | -76.18216 | 34017 ft | 403 kts | 294° |
| 2026-05-04 18:45 | 24.73467 | -76.23598 | 34012 ft | 403 kts | 294° |
| 2026-05-04 18:45 | 24.76191 | -76.28981 | 34011 ft | 403 kts | 294° |
| 2026-05-04 18:46 | 24.78918 | -76.34374 | 34014 ft | 403 kts | 294° |
| 2026-05-04 18:46 | 24.81646 | -76.39762 | 34014 ft | 403 kts | 294° |
| 2026-05-04 18:47 | 24.84367 | -76.45157 | 34020 ft | 403 kts | 294° |
| 2026-05-04 18:47 | 24.87084 | -76.50549 | 34020 ft | 403 kts | 294° |
| 2026-05-04 18:48 | 24.89794 | -76.55941 | 34020 ft | 402 kts | 294° |
| 2026-05-04 18:48 | 24.92505 | -76.61331 | 34021 ft | 402 kts | 294° |
| 2026-05-04 18:49 | 24.95211 | -76.66721 | 34024 ft | 402 kts | 294° |
| 2026-05-04 18:49 | 24.97912 | -76.72108 | 34021 ft | 402 kts | 294° |
| 2026-05-04 18:50 | 25.00609 | -76.77498 | 34017 ft | 401 kts | 294° |
| 2026-05-04 18:50 | 25.03303 | -76.82886 | 34020 ft | 401 kts | 294° |
| 2026-05-04 18:51 | 25.05994 | -76.88273 | 34020 ft | 401 kts | 293° |
| 2026-05-04 18:51 | 25.08685 | -76.93655 | 34021 ft | 401 kts | 293° |
| 2026-05-04 18:52 | 25.11376 | -76.99042 | 34019 ft | 401 kts | 293° |
| 2026-05-04 18:52 | 25.14059 | -77.04429 | 34019 ft | 400 kts | 293° |
| 2026-05-04 18:53 | 25.16740 | -77.09820 | 34022 ft | 400 kts | 293° |
| 2026-05-04 18:53 | 25.19419 | -77.15208 | 34029 ft | 400 kts | 293° |
| 2026-05-04 18:54 | 25.22089 | -77.20598 | 34034 ft | 400 kts | 293° |
| 2026-05-04 18:54 | 25.24764 | -77.25989 | 34038 ft | 400 kts | 293° |
| 2026-05-04 18:55 | 25.27440 | -77.31375 | 34040 ft | 400 kts | 293° |
| 2026-05-04 18:55 | 25.30773 | -77.39729 | 34037 ft | 394 kts | 285° |
| 2026-05-04 18:56 | 25.32630 | -77.45437 | 34035 ft | 395 kts | 285° |
| 2026-05-04 18:56 | 25.34492 | -77.51143 | 34027 ft | 395 kts | 285° |
| 2026-05-04 18:57 | 25.36351 | -77.56858 | 34020 ft | 395 kts | 285° |
| 2026-05-04 18:57 | 25.38201 | -77.62574 | 34018 ft | 395 kts | 285° |
| 2026-05-04 18:58 | 25.40052 | -77.68297 | 34012 ft | 395 kts | 285° |
| 2026-05-04 18:58 | 25.41901 | -77.74014 | 34011 ft | 395 kts | 285° |
| 2026-05-04 18:59 | 25.43675 | -77.79753 | 34014 ft | 393 kts | 283° |
| 2026-05-04 18:59 | 25.45142 | -77.85571 | 34011 ft | 392 kts | 281° |
| 2026-05-04 19:00 | 25.46526 | -77.91410 | 34011 ft | 392 kts | 281° |
| 2026-05-04 19:00 | 25.47955 | -77.97244 | 34008 ft | 393 kts | 282° |
| 2026-05-04 19:01 | 25.49415 | -78.03066 | 34009 ft | 393 kts | 282° |
| 2026-05-04 19:01 | 25.50875 | -78.08897 | 34011 ft | 393 kts | 282° |
| 2026-05-04 19:02 | 25.52331 | -78.14725 | 34010 ft | 393 kts | 282° |
| 2026-05-04 19:02 | 25.53536 | -78.19571 | 34014 ft | 393 kts | 282° |
| 2026-05-04 19:03 | 25.54979 | -78.25401 | 34019 ft | 392 kts | 282° |
| 2026-05-04 19:03 | 25.56428 | -78.31265 | 34017 ft | 392 kts | 282° |
| 2026-05-04 19:04 | 25.57873 | -78.37093 | 34015 ft | 392 kts | 282° |
| 2026-05-04 19:04 | 25.59313 | -78.42920 | 34016 ft | 392 kts | 282° |
| 2026-05-04 19:05 | 25.60747 | -78.48748 | 34014 ft | 392 kts | 282° |
| 2026-05-04 19:05 | 25.62176 | -78.54572 | 34013 ft | 392 kts | 282° |
| 2026-05-04 19:06 | 25.63604 | -78.60400 | 34015 ft | 392 kts | 282° |
| 2026-05-04 19:06 | 25.65037 | -78.66228 | 34021 ft | 392 kts | 282° |
| 2026-05-04 19:07 | 25.66466 | -78.72060 | 34022 ft | 392 kts | 282° |
| 2026-05-04 19:07 | 25.67888 | -78.77897 | 34021 ft | 392 kts | 282° |
| 2026-05-04 19:08 | 25.69305 | -78.83736 | 34020 ft | 392 kts | 282° |
| 2026-05-04 19:08 | 25.70729 | -78.89575 | 34022 ft | 392 kts | 282° |
| 2026-05-04 19:09 | 25.72151 | -78.95414 | 34022 ft | 392 kts | 282° |
| 2026-05-04 19:09 | 25.73560 | -79.01261 | 34022 ft | 392 kts | 282° |
| 2026-05-04 19:10 | 25.74971 | -79.07107 | 34025 ft | 392 kts | 282° |
| 2026-05-04 19:10 | 25.76387 | -79.12950 | 34026 ft | 392 kts | 282° |
| 2026-05-04 19:11 | 25.77801 | -79.18801 | 34026 ft | 392 kts | 282° |
| 2026-05-04 19:11 | 25.79207 | -79.24651 | 34029 ft | 392 kts | 282° |
| 2026-05-04 19:12 | 25.81310 | -79.33424 | 34029 ft | 392 kts | 282° |
| 2026-05-04 19:13 | 25.82711 | -79.39275 | 34029 ft | 392 kts | 282° |
| 2026-05-04 19:13 | 25.84107 | -79.45129 | 34031 ft | 392 kts | 282° |
| 2026-05-04 19:14 | 25.85496 | -79.50977 | 34033 ft | 392 kts | 282° |
| 2026-05-04 19:14 | 25.86887 | -79.56825 | 34035 ft | 392 kts | 282° |
| 2026-05-04 19:15 | 25.88272 | -79.62674 | 34038 ft | 392 kts | 282° |
| 2026-05-04 19:15 | 25.89657 | -79.68519 | 34041 ft | 391 kts | 282° |
| 2026-05-04 19:16 | 25.91037 | -79.74352 | 34043 ft | 391 kts | 282° |
| 2026-05-04 19:16 | 25.92669 | -79.80113 | 34046 ft | 395 kts | 292° |
| 2026-05-04 19:17 | 25.95527 | -79.85353 | 34050 ft | 398 kts | 297° |
| 2026-05-04 19:17 | 25.98455 | -79.90569 | 34055 ft | 397 kts | 297° |
| 2026-05-04 19:18 | 26.01372 | -79.95784 | 34061 ft | 397 kts | 297° |
| 2026-05-04 19:18 | 26.04208 | -80.00872 | 33431 ft | 401 kts | 297° |
| 2026-05-04 19:18 | 26.05680 | -80.03511 | 32855 ft | 400 kts | 297° |
| 2026-05-04 19:19 | 26.07140 | -80.06124 | 32425 ft | 395 kts | 297° |
| 2026-05-04 19:19 | 26.08603 | -80.08741 | 31974 ft | 391 kts | 297° |
| 2026-05-04 19:19 | 26.10030 | -80.11299 | 31544 ft | 387 kts | 297° |
| 2026-05-04 19:19 | 26.11447 | -80.13834 | 31111 ft | 384 kts | 297° |
| 2026-05-04 19:20 | 26.12853 | -80.16340 | 30698 ft | 380 kts | 298° |
| 2026-05-04 19:20 | 26.14360 | -80.18693 | 30294 ft | 380 kts | 307° |
| 2026-05-04 19:20 | 26.16333 | -80.20714 | 29889 ft | 383 kts | 319° |
| 2026-05-04 19:20 | 26.18638 | -80.22185 | 29772 ft | 382 kts | 328° |
| 2026-05-04 19:21 | 26.21036 | -80.23432 | 29590 ft | 380 kts | 327° |
| 2026-05-04 19:21 | 26.23425 | -80.24674 | 29416 ft | 378 kts | 327° |
| 2026-05-04 19:21 | 26.25806 | -80.25911 | 29241 ft | 377 kts | 327° |
| 2026-05-04 19:21 | 26.28177 | -80.27146 | 29064 ft | 376 kts | 327° |
| 2026-05-04 19:22 | 26.30542 | -80.28375 | 28895 ft | 375 kts | 327° |
| 2026-05-04 19:22 | 26.32900 | -80.29604 | 28715 ft | 374 kts | 327° |
| 2026-05-04 19:22 | 26.35256 | -80.30834 | 28549 ft | 373 kts | 327° |
| 2026-05-04 19:22 | 26.37604 | -80.32060 | 28374 ft | 372 kts | 327° |
| 2026-05-04 19:23 | 26.39950 | -80.33282 | 28198 ft | 371 kts | 327° |
| 2026-05-04 19:23 | 26.42288 | -80.34501 | 28018 ft | 371 kts | 327° |
| 2026-05-04 19:23 | 26.44622 | -80.35722 | 27852 ft | 370 kts | 327° |
| 2026-05-04 19:23 | 26.46951 | -80.36939 | 27678 ft | 369 kts | 327° |
| 2026-05-04 19:24 | 26.49277 | -80.38151 | 27506 ft | 369 kts | 327° |
| 2026-05-04 19:24 | 26.51598 | -80.39362 | 27265 ft | 368 kts | 327° |
| 2026-05-04 19:24 | 26.53911 | -80.40569 | 27079 ft | 367 kts | 327° |
| 2026-05-04 19:24 | 26.56221 | -80.41781 | 26906 ft | 366 kts | 327° |
| 2026-05-04 19:25 | 26.58522 | -80.42989 | 26736 ft | 365 kts | 327° |
| 2026-05-04 19:25 | 26.60821 | -80.44196 | 26563 ft | 365 kts | 327° |
| 2026-05-04 19:25 | 26.63130 | -80.45369 | 26393 ft | 365 kts | 329° |
| 2026-05-04 19:25 | 26.65496 | -80.46433 | 26221 ft | 367 kts | 332° |
| 2026-05-04 19:26 | 26.67894 | -80.47418 | 26048 ft | 367 kts | 333° |
| 2026-05-04 19:26 | 26.70302 | -80.48366 | 25877 ft | 367 kts | 333° |
| 2026-05-04 19:26 | 26.72710 | -80.49310 | 25703 ft | 366 kts | 333° |
| 2026-05-04 19:26 | 26.75107 | -80.50261 | 25532 ft | 365 kts | 333° |
| 2026-05-04 19:27 | 26.77498 | -80.51228 | 25362 ft | 365 kts | 333° |
| 2026-05-04 19:27 | 26.79878 | -80.52207 | 25191 ft | 364 kts | 332° |
| 2026-05-04 19:27 | 26.82248 | -80.53192 | 25019 ft | 363 kts | 332° |
| 2026-05-04 19:27 | 26.84617 | -80.54177 | 24852 ft | 363 kts | 332° |
| 2026-05-04 19:28 | 26.86982 | -80.55157 | 24679 ft | 362 kts | 332° |
| 2026-05-04 19:28 | 26.89344 | -80.56135 | 24516 ft | 362 kts | 332° |
| 2026-05-04 19:28 | 26.91701 | -80.57116 | 24344 ft | 361 kts | 332° |
| 2026-05-04 19:28 | 26.94056 | -80.58096 | 24178 ft | 361 kts | 333° |
| 2026-05-04 19:29 | 26.96405 | -80.59071 | 24006 ft | 360 kts | 333° |
| 2026-05-04 19:29 | 26.98754 | -80.60048 | 23839 ft | 360 kts | 333° |
| 2026-05-04 19:29 | 27.01103 | -80.61024 | 23668 ft | 359 kts | 333° |
| 2026-05-04 19:29 | 27.03447 | -80.61996 | 23477 ft | 359 kts | 333° |
| 2026-05-04 19:30 | 27.05787 | -80.62967 | 23312 ft | 358 kts | 333° |
| 2026-05-04 19:30 | 27.08119 | -80.63934 | 23146 ft | 357 kts | 333° |
| 2026-05-04 19:30 | 27.10443 | -80.64902 | 22973 ft | 356 kts | 333° |
| 2026-05-04 19:30 | 27.12764 | -80.65867 | 22795 ft | 355 kts | 333° |
| 2026-05-04 19:31 | 27.15076 | -80.66833 | 22622 ft | 354 kts | 333° |
| 2026-05-04 19:31 | 27.17376 | -80.67798 | 22447 ft | 353 kts | 333° |
| 2026-05-04 19:31 | 27.19673 | -80.68759 | 22277 ft | 352 kts | 333° |
| 2026-05-04 19:31 | 27.21961 | -80.69717 | 22105 ft | 350 kts | 333° |
| 2026-05-04 19:32 | 27.24238 | -80.70672 | 21926 ft | 349 kts | 333° |
| 2026-05-04 19:32 | 27.26515 | -80.71626 | 21757 ft | 348 kts | 333° |
| 2026-05-04 19:32 | 27.28782 | -80.72579 | 21592 ft | 347 kts | 333° |
| 2026-05-04 19:32 | 27.31040 | -80.73532 | 21418 ft | 346 kts | 333° |
| 2026-05-04 19:33 | 27.33295 | -80.74483 | 21250 ft | 346 kts | 333° |
| 2026-05-04 19:33 | 27.35546 | -80.75431 | 21082 ft | 345 kts | 333° |
| 2026-05-04 19:33 | 27.37789 | -80.76377 | 20891 ft | 344 kts | 333° |
| 2026-05-04 19:33 | 27.40029 | -80.77337 | 20462 ft | 344 kts | 332° |
| 2026-05-04 19:34 | 27.42250 | -80.78301 | 20078 ft | 341 kts | 332° |
| 2026-05-04 19:34 | 27.44458 | -80.79260 | 19697 ft | 339 kts | 333° |
| 2026-05-04 19:34 | 27.46647 | -80.80211 | 19319 ft | 337 kts | 333° |
| 2026-05-04 19:34 | 27.48828 | -80.81157 | 18941 ft | 335 kts | 333° |
| 2026-05-04 19:35 | 27.51000 | -80.82097 | 18576 ft | 334 kts | 333° |
| 2026-05-04 19:35 | 27.53167 | -80.83031 | 18184 ft | 332 kts | 333° |
| 2026-05-04 19:35 | 27.55317 | -80.83961 | 17791 ft | 330 kts | 333° |
| 2026-05-04 19:35 | 27.57437 | -80.84906 | 17426 ft | 326 kts | 332° |
| 2026-05-04 19:36 | 27.59501 | -80.85934 | 17064 ft | 323 kts | 330° |
| 2026-05-04 19:36 | 27.61523 | -80.87008 | 16706 ft | 321 kts | 330° |
| 2026-05-04 19:36 | 27.63530 | -80.88094 | 16351 ft | 319 kts | 330° |
| 2026-05-04 19:36 | 27.65527 | -80.89175 | 15994 ft | 318 kts | 330° |
| 2026-05-04 19:37 | 27.67522 | -80.90241 | 15640 ft | 317 kts | 331° |
| 2026-05-04 19:37 | 27.69506 | -80.91291 | 15285 ft | 316 kts | 331° |
| 2026-05-04 19:37 | 27.71497 | -80.92338 | 14934 ft | 315 kts | 332° |
| 2026-05-04 19:37 | 27.73481 | -80.93382 | 14581 ft | 315 kts | 332° |
| 2026-05-04 19:38 | 27.75466 | -80.94424 | 14229 ft | 315 kts | 332° |
| 2026-05-04 19:38 | 27.77451 | -80.95464 | 13879 ft | 314 kts | 332° |
| 2026-05-04 19:38 | 27.79424 | -80.96497 | 13516 ft | 312 kts | 332° |
| 2026-05-04 19:38 | 27.81391 | -80.97529 | 13147 ft | 311 kts | 332° |
| 2026-05-04 19:39 | 27.83349 | -80.98556 | 12795 ft | 310 kts | 332° |
| 2026-05-04 19:39 | 27.84669 | -80.99248 | 12562 ft | 309 kts | 332° |
| 2026-05-04 19:39 | 27.86611 | -81.00273 | 12214 ft | 307 kts | 332° |
| 2026-05-04 19:39 | 27.88535 | -81.01290 | 11968 ft | 302 kts | 332° |
| 2026-05-04 19:40 | 27.90440 | -81.02292 | 11618 ft | 301 kts | 332° |
| 2026-05-04 19:40 | 27.92333 | -81.03286 | 11251 ft | 301 kts | 332° |
| 2026-05-04 19:40 | 27.93803 | -81.04052 | 11034 ft | 298 kts | 333° |
| 2026-05-04 19:40 | 27.95739 | -81.04959 | 10578 ft | 303 kts | 335° |
| 2026-05-04 19:41 | 27.97692 | -81.05785 | 10193 ft | 296 kts | 336° |
| 2026-05-04 19:41 | 27.99625 | -81.06568 | 9603 ft | 294 kts | 336° |
| 2026-05-04 19:41 | 28.01541 | -81.07346 | 8971 ft | 291 kts | 336° |
| 2026-05-04 19:41 | 28.03437 | -81.08128 | 8368 ft | 289 kts | 336° |
| 2026-05-04 19:42 | 28.05308 | -81.08907 | 7791 ft | 286 kts | 336° |
| 2026-05-04 19:42 | 28.07170 | -81.09689 | 7196 ft | 284 kts | 338° |
| 2026-05-04 19:42 | 28.09020 | -81.10468 | 6601 ft | 284 kts | 339° |
| 2026-05-04 19:42 | 28.10836 | -81.11227 | 6312 ft | 271 kts | 338° |
| 2026-05-04 19:43 | 28.12574 | -81.11952 | 6178 ft | 264 kts | 339° |
| 2026-05-04 19:43 | 28.14279 | -81.12663 | 6055 ft | 258 kts | 339° |
| 2026-05-04 19:43 | 28.15860 | -81.13547 | 5864 ft | 253 kts | 317° |
| 2026-05-04 19:43 | 28.16750 | -81.15210 | 5554 ft | 247 kts | 282° |
| 2026-05-04 19:44 | 28.17041 | -81.17079 | 5291 ft | 235 kts | 283° |
| 2026-05-04 19:44 | 28.17561 | -81.18797 | 5064 ft | 229 kts | 291° |
| 2026-05-04 19:44 | 28.18162 | -81.20459 | 4836 ft | 227 kts | 293° |
| 2026-05-04 19:44 | 28.18793 | -81.22099 | 4595 ft | 227 kts | 294° |
| 2026-05-04 19:45 | 28.19441 | -81.23730 | 4360 ft | 229 kts | 295° |
| 2026-05-04 19:45 | 28.20107 | -81.25370 | 4155 ft | 229 kts | 299° |
| 2026-05-04 19:45 | 28.20998 | -81.26844 | 4037 ft | 225 kts | 311° |
| 2026-05-04 19:45 | 28.22044 | -81.28084 | 3993 ft | 211 kts | 332° |
| 2026-05-04 19:46 | 28.23403 | -81.28421 | 3869 ft | 200 kts | 14° |
| 2026-05-04 19:46 | 28.24777 | -81.28063 | 3479 ft | 207 kts | 9° |
| 2026-05-04 19:46 | 28.26216 | -81.28045 | 3186 ft | 203 kts | 3° |
| 2026-05-04 19:46 | 28.27584 | -81.28081 | 2897 ft | 190 kts | 4° |
| 2026-05-04 19:47 | 28.28872 | -81.28100 | 2655 ft | 181 kts | 4° |
| 2026-05-04 19:47 | 28.30112 | -81.28114 | 2415 ft | 176 kts | 4° |
| 2026-05-04 19:47 | 28.31320 | -81.28126 | 2182 ft | 171 kts | 4° |
| 2026-05-04 19:47 | 28.32507 | -81.28138 | 1960 ft | 170 kts | 4° |
| 2026-05-04 19:48 | 28.33682 | -81.28150 | 1741 ft | 169 kts | 4° |
| 2026-05-04 19:48 | 28.34825 | -81.28163 | 1526 ft | 158 kts | 6° |
| 2026-05-04 19:48 | 28.35886 | -81.28175 | 1336 ft | 149 kts | 5° |
| 2026-05-04 19:48 | 28.36919 | -81.28184 | 1136 ft | 147 kts | 4° |
| 2026-05-04 19:49 | 28.37935 | -81.28194 | 926 ft | 145 kts | 4° |
| 2026-05-04 19:49 | 28.38950 | -81.28204 | 742 ft | 146 kts | 6° |
| 2026-05-04 19:49 | 28.39972 | -81.28214 | 506 ft | 148 kts | 6° |
| 2026-05-04 19:49 | 28.40973 | -81.28234 | 307 ft | 142 kts | 7° |
| 2026-05-04 19:50 | 28.41961 | -81.28238 | 138 ft | 142 kts | 6° |
| 2026-05-04 19:50 | 28.42878 | -81.28241 | 99 ft | 115 kts | 359° |
| 2026-05-04 19:50 | 28.43553 | -81.28249 | 97 ft | 80 kts | 359° |
| 2026-05-04 19:50 | 28.44020 | -81.28248 | 98 ft | 55 kts | 359° |
| 2026-05-04 19:51 | 28.44242 | -81.28276 | 99 ft | 17 kts | 303° |
| 2026-05-04 19:51 | 28.44195 | -81.28379 | 96 ft | 16 kts | 185° |
| 2026-05-04 19:51 | 28.44076 | -81.28377 | 97 ft | 18 kts | 179° |
| 2026-05-04 19:51 | 28.43943 | -81.28375 | 96 ft | 20 kts | 182° |
| 2026-05-04 19:52 | 28.43879 | -81.28452 | 96 ft | 15 kts | 267° |
| 2026-05-04 19:52 | 28.43875 | -81.28564 | 101 ft | 14 kts | 269° |
| 2026-05-04 19:52 | 28.43873 | -81.28693 | 104 ft | 16 kts | 270° |
| 2026-05-04 19:52 | 28.43873 | -81.28827 | 109 ft | 22 kts | 270° |
| 2026-05-04 19:53 | 28.43870 | -81.29034 | 107 ft | 26 kts | 269° |
| 2026-05-04 19:53 | 28.43868 | -81.29220 | 97 ft | 17 kts | 263° |
| 2026-05-04 19:53 | 28.43768 | -81.29262 | 99 ft | 18 kts | 179° |
| 2026-05-04 19:53 | 28.43639 | -81.29260 | 98 ft | 19 kts | 180° |
| 2026-05-04 19:54 | 28.43551 | -81.29323 | 98 ft | 18 kts | 269° |
| 2026-05-04 19:54 | 28.43552 | -81.29467 | 97 ft | 19 kts | 270° |
| 2026-05-04 19:54 | 28.43552 | -81.29622 | 98 ft | 21 kts | 268° |
| 2026-05-04 19:54 | 28.43557 | -81.29786 | 95 ft | 19 kts | 296° |
| 2026-05-04 19:55 | 28.43686 | -81.29809 | 94 ft | 21 kts | 0° |
| 2026-05-04 19:55 | 28.43824 | -81.29870 | 95 ft | 23 kts | 320° |
| 2026-05-04 19:55 | 28.43897 | -81.30026 | 99 ft | 23 kts | 278° |
| 2026-05-04 19:55 | 28.43906 | -81.30207 | 102 ft | 23 kts | 274° |
| 2026-05-04 19:56 | 28.43912 | -81.30386 | 102 ft | 23 kts | 271° |
| 2026-05-04 19:56 | 28.43923 | -81.30560 | 106 ft | 23 kts | 275° |
| 2026-05-04 19:56 | 28.43935 | -81.30741 | 109 ft | 23 kts | 274° |
| 2026-05-04 19:56 | 28.43943 | -81.30931 | 107 ft | 26 kts | 270° |
| 2026-05-04 19:57 | 28.43942 | -81.31141 | 108 ft | 27 kts | 269° |
| 2026-05-04 19:57 | 28.43930 | -81.31329 | 107 ft | 24 kts | 266° |
| 2026-05-04 19:57 | 28.43884 | -81.31458 | 105 ft | 16 kts | 198° |
| 2026-05-04 19:57 | 28.43805 | -81.31389 | 101 ft | 18 kts | 109° |
| 2026-05-04 19:58 | 28.43748 | -81.31255 | 99 ft | 16 kts | 130° |
| 2026-05-04 19:58 | 28.43684 | -81.31193 | 95 ft | 12 kts | 142° |
| 2026-05-04 19:58 | 28.43605 | -81.31137 | 95 ft | 14 kts | 168° |
| 2026-05-04 19:58 | 28.43503 | -81.31153 | 95 ft | 14 kts | 204° |
| 2026-05-04 19:59 | 28.43447 | -81.31220 | 95 ft | 7 kts | 233° |
| 2026-05-04 19:59 | 28.43434 | -81.31243 | 96 ft | 3 kts | 247° |
| 2026-05-04 19:59 | 28.43450 | -81.31265 | 95 ft | 5 kts | 329° |
| 2026-05-04 19:59 | 28.43479 | -81.31287 | 101 ft | 0 kts | 324° |
| 2026-05-04 20:00 | 28.43480 | -81.31288 | 101 ft | 0 kts | 324° |